Waskaganish, Canada
Current Conditions -  °F | °C
As of 8:00 AM on Thursday 30 Oct 2014 (Local Time) from CYMO Reporting Station
Overcast Overcast  
Wind Chill: 21°   Ceiling: 4000
Heat Index: 30°   Visibility: 9mi
Dew Point: 28°   Wind: 10mph
Humidity: 93%   Direction: 270°W
Pressure: 29.98"   Gusts: NA
Location:  51.49°N, 78.75°W
Report Text: CYMO 301200Z AUTO 27009KT 9SM FEW014 OVC040 M01/M02 A2998 RMK SLP151
Loading
Personal Weather Stations






























Interactive Weather Map
Tropical Storm Tracking
New forecast layout! Learn more

10-Day Weather Forecast

Advertisements
Track Severe Weather on mobile